Time;durP1;ratioP1;P1;durP2;ratioP2;P2;SDS_P1;SDS_P2;PMS_P1;PMS_P2;Temp;Humidity;BMP_temperature;BMP_pressure;BME280_temperature;BME280_humidity;BME280_pressure;Samples;Min_cycle;Max_cycle;Signal;HPM_P1;HPM_P2
2021/01/31 00:00:49;;;;;;;;;;;19.10;56.00;;;;;;5090200;28;1699;-68
2021/01/31 00:03:20;;;;;;;;;;;19.10;56.00;;;;;;5074487;28;1582;-67
2021/01/31 00:05:45;;;;;;;;;;;19.10;56.00;;;;;;5073999;28;1792;-67
2021/01/31 00:08:12;;;;;;;;;;;19.10;56.00;;;;;;5056186;28;1628;-67
2021/01/31 00:10:37;;;;;;;;;;;19.10;56.00;;;;;;5080259;28;1431;-67
2021/01/31 00:13:03;;;;;;;;;;;19.10;56.10;;;;;;5094707;28;1606;-68
2021/01/31 00:15:29;;;;;;;;;;;19.10;56.10;;;;;;5077835;28;1963;-68
2021/01/31 00:17:55;;;;;;;;;;;19.10;56.10;;;;;;5093336;28;1610;-68
2021/01/31 00:20:20;;;;;;;;;;;19.10;56.10;;;;;;5079981;28;1348;-68
2021/01/31 00:22:46;;;;;;;;;;;19.10;56.00;;;;;;5080356;28;1744;-67
2021/01/31 00:25:12;;;;;;;;;;;19.10;56.10;;;;;;5069289;28;1179;-67
2021/01/31 00:27:38;;;;;;;;;;;19.10;56.10;;;;;;5075130;28;1187;-67
2021/01/31 00:30:16;;;;;;;;;;;19.10;56.10;;;;;;5086021;28;1468;-66
2021/01/31 00:32:41;;;;;;;;;;;19.10;56.20;;;;;;5074375;28;1628;-67
2021/01/31 00:35:07;;;;;;;;;;;19.10;56.20;;;;;;5072347;28;2110;-66
2021/01/31 00:37:32;;;;;;;;;;;19.10;56.20;;;;;;5072387;28;1389;-66
2021/01/31 00:39:57;;;;;;;;;;;19.10;56.20;;;;;;5086910;28;1703;-68
2021/01/31 00:42:23;;;;;;;;;;;19.10;56.20;;;;;;5073380;28;1577;-68
2021/01/31 00:44:49;;;;;;;;;;;19.10;56.20;;;;;;5073202;28;1707;-68
2021/01/31 00:47:14;;;;;;;;;;;19.00;56.10;;;;;;5071972;28;1426;-67
2021/01/31 00:49:41;;;;;;;;;;;19.10;56.20;;;;;;5072008;28;1595;-68
2021/01/31 00:52:07;;;;;;;;;;;19.10;56.20;;;;;;5085893;28;1554;-68
2021/01/31 00:54:32;;;;;;;;;;;19.10;56.10;;;;;;5071818;28;1432;-68
2021/01/31 00:56:58;;;;;;;;;;;19.10;56.10;;;;;;5085071;28;1913;-68
2021/01/31 00:59:23;;;;;;;;;;;19.10;56.10;;;;;;5086283;28;1321;-67
2021/01/31 01:01:49;;;;;;;;;;;19.10;56.10;;;;;;5073432;28;1639;-68
2021/01/31 01:04:14;;;;;;;;;;;19.10;56.10;;;;;;5072877;28;1521;-68
2021/01/31 01:06:39;;;;;;;;;;;19.10;56.10;;;;;;5073230;28;1400;-67
2021/01/31 01:09:05;;;;;;;;;;;19.10;56.10;;;;;;5072805;28;1732;-67
2021/01/31 01:11:30;;;;;;;;;;;19.10;56.10;;;;;;5071873;28;1679;-67
2021/01/31 01:13:56;;;;;;;;;;;19.10;56.10;;;;;;5073107;28;1414;-67
2021/01/31 01:16:21;;;;;;;;;;;19.10;56.10;;;;;;5082856;28;1940;-67
2021/01/31 01:18:47;;;;;;;;;;;19.10;56.10;;;;;;5088132;28;1740;-67
2021/01/31 01:21:13;;;;;;;;;;;19.10;56.10;;;;;;5072835;28;1680;-67
2021/01/31 01:23:42;;;;;;;;;;;19.10;56.10;;;;;;5072691;28;1567;-67
2021/01/31 01:26:07;;;;;;;;;;;19.10;56.10;;;;;;5072823;28;916;-67
2021/01/31 01:28:33;;;;;;;;;;;19.10;56.10;;;;;;5071725;28;1642;-67
2021/01/31 01:30:58;;;;;;;;;;;19.10;56.10;;;;;;5072997;28;1373;-67
2021/01/31 01:33:24;;;;;;;;;;;19.10;56.10;;;;;;5073110;28;1730;-67
2021/01/31 01:35:50;;;;;;;;;;;19.10;56.10;;;;;;5054544;28;1961;-68
2021/01/31 01:38:15;;;;;;;;;;;19.10;56.10;;;;;;5072799;28;1360;-67
2021/01/31 01:40:41;;;;;;;;;;;19.00;56.00;;;;;;5072871;28;1349;-68
2021/01/31 01:43:12;;;;;;;;;;;19.00;56.10;;;;;;5072739;28;1390;-68
2021/01/31 01:45:37;;;;;;;;;;;19.00;56.10;;;;;;5071595;28;1703;-68
2021/01/31 01:48:09;;;;;;;;;;;19.00;56.10;;;;;;5072175;28;1641;-68
2021/01/31 01:50:36;;;;;;;;;;;19.00;56.10;;;;;;5072196;28;1411;-68
2021/01/31 01:53:01;;;;;;;;;;;19.00;56.10;;;;;;5085149;28;1368;-68
2021/01/31 01:55:28;;;;;;;;;;;19.00;56.10;;;;;;5072466;28;1902;-68
2021/01/31 01:58:10;;;;;;;;;;;19.00;56.10;;;;;;5078674;28;1691;-66
2021/01/31 02:00:35;;;;;;;;;;;19.00;56.20;;;;;;5088479;28;1246;-66
2021/01/31 02:03:08;;;;;;;;;;;19.00;56.10;;;;;;5072638;28;1468;-66
2021/01/31 02:05:34;;;;;;;;;;;19.00;56.20;;;;;;5072534;28;1605;-67
2021/01/31 02:07:59;;;;;;;;;;;19.00;56.20;;;;;;5055243;28;1666;-66
2021/01/31 02:10:25;;;;;;;;;;;19.00;56.20;;;;;;5074617;28;1609;-67
2021/01/31 02:12:51;;;;;;;;;;;19.00;56.20;;;;;;5084487;28;1300;-66
2021/01/31 02:15:16;;;;;;;;;;;19.00;56.20;;;;;;5076936;28;1902;-66
2021/01/31 02:17:48;;;;;;;;;;;19.00;56.20;;;;;;5096028;28;1623;-66
2021/01/31 02:20:32;;;;;;;;;;;18.90;56.20;;;;;;5078524;28;1696;-67
2021/01/31 02:23:03;;;;;;;;;;;18.90;56.20;;;;;;5076490;28;1197;-66
2021/01/31 02:25:40;;;;;;;;;;;18.90;56.20;;;;;;5076090;28;1375;-66
2021/01/31 02:28:09;;;;;;;;;;;18.90;56.20;;;;;;5075088;28;1743;-66
2021/01/31 02:30:57;;;;;;;;;;;18.90;56.20;;;;;;5076757;28;1703;-66
2021/01/31 02:33:42;;;;;;;;;;;19.00;56.30;;;;;;5080198;28;1684;-66
2021/01/31 02:36:16;;;;;;;;;;;19.00;56.30;;;;;;5096181;28;1897;-67
2021/01/31 02:38:46;;;;;;;;;;;19.00;56.20;;;;;;5096552;28;1342;-68
2021/01/31 02:41:13;;;;;;;;;;;19.00;56.20;;;;;;5096156;28;1425;-67
2021/01/31 02:43:43;;;;;;;;;;;19.00;56.10;;;;;;5095974;28;1298;-68
2021/01/31 02:46:12;;;;;;;;;;;19.00;56.00;;;;;;5094762;28;1725;-67
2021/01/31 02:48:42;;;;;;;;;;;19.10;56.00;;;;;;5095329;28;1583;-67
2021/01/31 02:51:08;;;;;;;;;;;19.10;55.90;;;;;;5094961;28;1383;-67
2021/01/31 02:53:34;;;;;;;;;;;19.10;55.80;;;;;;5084127;28;1676;-67
2021/01/31 02:56:02;;;;;;;;;;;19.20;55.70;;;;;;5079492;28;2005;-67
2021/01/31 02:58:29;;;;;;;;;;;19.20;55.60;;;;;;5096263;28;1381;-67
2021/01/31 03:00:56;;;;;;;;;;;19.20;55.50;;;;;;5075256;28;1717;-68
2021/01/31 03:03:24;;;;;;;;;;;19.30;55.40;;;;;;5074992;28;1700;-68
2021/01/31 03:05:50;;;;;;;;;;;19.30;55.40;;;;;;5075318;28;1675;-68
2021/01/31 03:08:18;;;;;;;;;;;19.30;55.30;;;;;;5074341;28;1471;-68
2021/01/31 03:10:51;;;;;;;;;;;19.30;55.20;;;;;;5074172;28;1654;-68
2021/01/31 03:13:16;;;;;;;;;;;19.30;55.20;;;;;;5059084;28;1580;-68
2021/01/31 03:15:44;;;;;;;;;;;19.40;55.20;;;;;;5079696;28;1894;-68
2021/01/31 03:18:15;;;;;;;;;;;19.40;55.10;;;;;;5076752;28;1684;-68
2021/01/31 03:20:41;;;;;;;;;;;19.40;55.10;;;;;;5073205;28;1373;-68
2021/01/31 03:23:14;;;;;;;;;;;19.40;55.10;;;;;;5074563;28;1474;-68
2021/01/31 03:25:41;;;;;;;;;;;19.40;55.10;;;;;;5073321;28;1697;-67
2021/01/31 03:28:06;;;;;;;;;;;19.40;55.20;;;;;;5073913;28;1702;-68
2021/01/31 03:30:32;;;;;;;;;;;19.40;55.00;;;;;;5073852;28;1656;-68
2021/01/31 03:33:03;;;;;;;;;;;19.40;55.00;;;;;;5073406;28;1719;-68
2021/01/31 03:35:28;;;;;;;;;;;19.40;55.00;;;;;;5073661;28;1943;-67
2021/01/31 03:38:11;;;;;;;;;;;19.40;55.60;;;;;;5075125;28;1360;-67
2021/01/31 03:40:37;;;;;;;;;;;19.40;55.10;;;;;;5056992;28;1558;-67
2021/01/31 03:43:02;;;;;;;;;;;19.40;55.00;;;;;;5089348;22;1918;-69
2021/01/31 03:45:29;;;;;;;;;;;19.40;55.10;;;;;;5059222;28;1243;-69
2021/01/31 03:48:01;;;;;;;;;;;19.40;55.00;;;;;;5076950;28;1561;-68
2021/01/31 03:50:26;;;;;;;;;;;19.40;55.00;;;;;;5079137;28;1669;-70
2021/01/31 03:52:51;;;;;;;;;;;19.40;55.00;;;;;;5070952;28;1514;-71
2021/01/31 03:55:17;;;;;;;;;;;19.40;55.00;;;;;;5053996;28;1980;-69
2021/01/31 03:57:44;;;;;;;;;;;19.40;55.00;;;;;;5054887;28;1418;-69
2021/01/31 04:00:11;;;;;;;;;;;19.40;55.00;;;;;;5053878;28;1386;-69
2021/01/31 04:02:46;;;;;;;;;;;19.40;55.10;;;;;;5046929;28;1273;-68
2021/01/31 04:05:11;;;;;;;;;;;19.40;55.10;;;;;;5033492;28;1293;-69
2021/01/31 04:07:38;;;;;;;;;;;19.40;55.10;;;;;;5033243;28;1382;-67
2021/01/31 04:10:03;;;;;;;;;;;19.40;55.10;;;;;;5033468;28;1186;-69
2021/01/31 04:12:33;;;;;;;;;;;19.40;55.10;;;;;;5033409;28;1340;-69
2021/01/31 04:14:59;;;;;;;;;;;19.40;55.10;;;;;;5016719;28;1123;-67
2021/01/31 04:17:24;;;;;;;;;;;19.40;55.10;;;;;;5052889;28;1941;-69
2021/01/31 04:19:50;;;;;;;;;;;19.40;55.10;;;;;;5036437;28;1383;-69
2021/01/31 04:22:15;;;;;;;;;;;19.40;55.10;;;;;;5054202;28;1363;-69
2021/01/31 04:24:41;;;;;;;;;;;19.40;55.10;;;;;;5054158;28;1403;-70
2021/01/31 04:27:06;;;;;;;;;;;19.40;55.10;;;;;;5054107;28;1287;-69
2021/01/31 04:29:33;;;;;;;;;;;19.40;55.10;;;;;;5053063;28;1216;-69
2021/01/31 04:31:59;;;;;;;;;;;19.40;55.10;;;;;;5052700;28;1276;-69
2021/01/31 04:34:24;;;;;;;;;;;19.40;55.10;;;;;;5053810;28;1384;-69
2021/01/31 04:36:49;;;;;;;;;;;19.30;55.00;;;;;;5052602;28;1894;-69
2021/01/31 04:39:15;;;;;;;;;;;19.30;55.10;;;;;;5054017;28;1338;-69
2021/01/31 04:41:41;;;;;;;;;;;19.30;55.70;;;;;;5054258;28;1368;-69
2021/01/31 04:44:07;;;;;;;;;;;19.30;55.10;;;;;;5052388;28;1283;-69
2021/01/31 04:46:47;;;;;;;;;;;19.30;55.10;;;;;;5035960;28;1453;-68
2021/01/31 04:49:31;;;;;;;;;;;19.30;55.10;;;;;;5036176;28;1329;-69
2021/01/31 04:52:00;;;;;;;;;;;19.30;55.10;;;;;;5053600;28;1360;-69
2021/01/31 04:54:45;;;;;;;;;;;19.30;55.10;;;;;;5052313;28;1123;-69
2021/01/31 04:57:14;;;;;;;;;;;19.30;55.10;;;;;;5053248;28;1906;-69
2021/01/31 04:59:44;;;;;;;;;;;19.30;55.10;;;;;;5052690;28;1305;-69
2021/01/31 05:02:12;;;;;;;;;;;19.30;55.10;;;;;;5037483;28;1425;-69
2021/01/31 05:04:41;;;;;;;;;;;19.30;55.10;;;;;;5033631;28;1114;-69
2021/01/31 05:07:07;;;;;;;;;;;19.30;55.10;;;;;;5033546;28;1398;-69
2021/01/31 05:09:32;;;;;;;;;;;19.30;55.10;;;;;;5033458;28;1312;-68
2021/01/31 05:12:04;;;;;;;;;;;19.30;55.10;;;;;;5032344;28;1303;-67
2021/01/31 05:14:46;;;;;;;;;;;19.30;55.10;;;;;;5033425;28;1404;-69
2021/01/31 05:17:12;;;;;;;;;;;19.30;55.10;;;;;;5048964;28;1961;-69
2021/01/31 05:19:38;;;;;;;;;;;19.30;55.10;;;;;;5052072;28;1297;-69
2021/01/31 05:22:03;;;;;;;;;;;19.30;55.10;;;;;;5051848;28;1445;-67
2021/01/31 05:24:29;;;;;;;;;;;19.30;55.10;;;;;;5050440;28;2206;-68
2021/01/31 05:26:58;;;;;;;;;;;19.30;55.10;;;;;;5052378;28;1554;-67
2021/01/31 05:29:43;;;;;;;;;;;19.30;55.10;;;;;;5049556;28;1629;-67
2021/01/31 05:32:10;;;;;;;;;;;19.30;55.10;;;;;;5052583;28;1683;-67
2021/01/31 05:34:36;;;;;;;;;;;19.30;55.10;;;;;;5052868;28;1409;-67
2021/01/31 05:37:03;;;;;;;;;;;19.30;55.10;;;;;;5051805;28;1959;-67
2021/01/31 05:39:35;;;;;;;;;;;19.30;55.10;;;;;;5053218;28;1416;-67
2021/01/31 05:42:03;;;;;;;;;;;19.30;55.10;;;;;;5053067;28;1290;-67
2021/01/31 05:44:30;;;;;;;;;;;19.30;55.10;;;;;;5051064;28;1611;-67
2021/01/31 05:47:00;;;;;;;;;;;19.30;55.10;;;;;;5051810;28;1617;-67
2021/01/31 05:49:33;;;;;;;;;;;19.30;55.10;;;;;;5051786;28;1676;-67
2021/01/31 05:51:58;;;;;;;;;;;19.30;55.10;;;;;;5051797;28;1600;-67
2021/01/31 05:54:32;;;;;;;;;;;19.30;55.10;;;;;;5052895;28;1699;-68
2021/01/31 05:56:57;;;;;;;;;;;19.30;55.10;;;;;;5052710;28;1910;-67
2021/01/31 05:59:23;;;;;;;;;;;19.30;55.10;;;;;;5052993;28;1439;-67
2021/01/31 06:02:09;;;;;;;;;;;19.30;55.10;;;;;;5051669;28;1659;-67
2021/01/31 06:04:34;;;;;;;;;;;19.30;55.10;;;;;;5052392;28;1060;-67
2021/01/31 06:07:04;;;;;;;;;;;19.30;55.10;;;;;;5052742;28;1374;-67
2021/01/31 06:09:39;;;;;;;;;;;19.30;55.10;;;;;;5051620;28;1418;-68
2021/01/31 06:12:07;;;;;;;;;;;19.30;55.10;;;;;;5052645;28;1353;-67
2021/01/31 06:14:34;;;;;;;;;;;19.30;55.10;;;;;;5052663;28;1341;-67
2021/01/31 06:17:19;;;;;;;;;;;19.30;55.00;;;;;;5051398;28;1957;-67
2021/01/31 06:19:45;;;;;;;;;;;19.30;55.00;;;;;;5051526;28;1729;-67
2021/01/31 06:22:11;;;;;;;;;;;19.40;55.50;;;;;;5051510;28;1736;-67
2021/01/31 06:24:36;;;;;;;;;;;19.40;54.90;;;;;;5051326;28;1427;-67
2021/01/31 06:27:02;;;;;;;;;;;19.40;54.90;;;;;;5051390;28;1704;-67
2021/01/31 06:29:35;;;;;;;;;;;19.40;54.80;;;;;;5051505;28;1384;-67
2021/01/31 06:32:09;;;;;;;;;;;19.40;54.80;;;;;;5034810;28;1652;-67
2021/01/31 06:34:35;;;;;;;;;;;19.40;54.80;;;;;;5051304;28;1762;-67
2021/01/31 06:37:23;;;;;;;;;;;19.40;54.80;;;;;;5052351;28;1953;-67
2021/01/31 06:39:58;;;;;;;;;;;19.40;54.80;;;;;;5032059;28;1394;-68
2021/01/31 06:42:28;;;;;;;;;;;19.40;54.70;;;;;;5052300;28;1400;-67
2021/01/31 06:45:00;;;;;;;;;;;19.40;54.80;;;;;;5051316;28;1647;-67
2021/01/31 06:47:28;;;;;;;;;;;19.40;54.70;;;;;;5051225;28;1756;-67
2021/01/31 06:49:53;;;;;;;;;;;19.40;54.70;;;;;;5052602;28;1346;-67
2021/01/31 06:52:21;;;;;;;;;;;19.40;54.70;;;;;;5052155;28;1389;-67
2021/01/31 06:54:52;;;;;;;;;;;19.50;54.70;;;;;;5051763;28;1386;-68
2021/01/31 06:57:37;;;;;;;;;;;19.40;54.70;;;;;;5054638;28;1959;-67
2021/01/31 07:00:11;;;;;;;;;;;19.40;54.70;;;;;;5056145;28;1659;-67
2021/01/31 07:02:55;;;;;;;;;;;19.40;54.70;;;;;;5055947;28;1736;-67
2021/01/31 07:05:44;;;;;;;;;;;19.40;54.70;;;;;;5054615;28;1743;-67
2021/01/31 07:08:20;;;;;;;;;;;19.40;54.70;;;;;;5053090;28;1433;-63
2021/01/31 07:11:04;;;;;;;;;;;19.40;54.70;;;;;;5046892;28;1810;-66
2021/01/31 07:13:32;;;;;;;;;;;19.40;54.70;;;;;;5054896;28;1275;-67
2021/01/31 07:16:09;;;;;;;;;;;19.40;54.70;;;;;;5055446;28;1890;-67
2021/01/31 07:18:36;;;;;;;;;;;19.40;54.70;;;;;;5055812;28;1462;-67
2021/01/31 07:21:12;;;;;;;;;;;19.40;54.70;;;;;;5054184;28;1314;-67
2021/01/31 07:23:37;;;;;;;;;;;19.40;54.70;;;;;;5054177;28;1379;-67
2021/01/31 07:26:19;;;;;;;;;;;19.40;54.70;;;;;;5054061;28;1294;-65
2021/01/31 07:28:45;;;;;;;;;;;19.40;54.70;;;;;;5054643;28;1678;-65
2021/01/31 07:31:11;;;;;;;;;;;19.40;54.70;;;;;;5054293;28;1415;-66
2021/01/31 07:33:39;;;;;;;;;;;19.40;54.70;;;;;;5053583;28;1384;-66
2021/01/31 07:36:18;;;;;;;;;;;19.40;54.70;;;;;;5054686;28;1947;-67
2021/01/31 07:38:50;;;;;;;;;;;19.40;54.70;;;;;;5054076;28;1401;-67
2021/01/31 07:41:15;;;;;;;;;;;19.40;54.70;;;;;;5055391;28;1439;-66
2021/01/31 07:43:41;;;;;;;;;;;19.40;54.70;;;;;;5053215;28;1288;-66
2021/01/31 07:46:07;;;;;;;;;;;19.40;54.80;;;;;;5037198;28;1508;-66
2021/01/31 07:48:50;;;;;;;;;;;19.40;54.80;;;;;;5054405;28;1597;-67
2021/01/31 07:51:25;;;;;;;;;;;19.40;54.80;;;;;;5055038;28;1386;-66
2021/01/31 07:53:50;;;;;;;;;;;19.40;54.80;;;;;;5054800;28;1672;-66
2021/01/31 07:56:32;;;;;;;;;;;19.40;54.80;;;;;;5052818;28;1961;-67
2021/01/31 07:58:58;;;;;;;;;;;19.30;54.70;;;;;;5051639;28;1590;-66
2021/01/31 08:01:39;;;;;;;;;;;19.30;54.70;;;;;;5051952;28;1259;-67
2021/01/31 08:04:16;;;;;;;;;;;19.30;54.70;;;;;;5053050;28;1678;-66
2021/01/31 08:06:49;;;;;;;;;;;19.30;54.70;;;;;;5052360;28;1274;-66
2021/01/31 08:09:40;;;;;;;;;;;19.30;54.70;;;;;;5051884;28;1698;-67
2021/01/31 08:12:10;;;;;;;;;;;19.30;54.70;;;;;;5045494;28;1704;-66
2021/01/31 08:14:54;;;;;;;;;;;19.30;54.70;;;;;;5053401;28;1701;-66
2021/01/31 08:17:39;;;;;;;;;;;19.30;54.80;;;;;;5054433;28;1894;-67
2021/01/31 08:20:16;;;;;;;;;;;19.30;54.80;;;;;;5054652;28;1486;-66
2021/01/31 08:22:42;;;;;;;;;;;19.30;55.30;;;;;;5054656;28;1414;-66
2021/01/31 08:25:07;;;;;;;;;;;19.30;54.80;;;;;;5053010;28;1484;-67
2021/01/31 08:27:38;;;;;;;;;;;19.30;54.80;;;;;;5054362;28;1421;-67
2021/01/31 08:30:13;;;;;;;;;;;19.30;54.70;;;;;;5054517;28;1420;-66
2021/01/31 08:33:04;;;;;;;;;;;19.30;54.80;;;;;;5054410;28;1451;-66
2021/01/31 08:35:30;;;;;;;;;;;19.30;54.80;;;;;;5052872;28;1890;-66
2021/01/31 08:38:14;;;;;;;;;;;19.30;54.80;;;;;;5054117;28;1689;-67
2021/01/31 08:40:39;;;;;;;;;;;19.30;54.80;;;;;;5054211;28;1445;-67
2021/01/31 08:43:05;;;;;;;;;;;19.30;54.70;;;;;;5052918;28;1727;-66
2021/01/31 08:45:43;;;;;;;;;;;19.30;54.70;;;;;;5052700;28;1518;-66
2021/01/31 08:48:09;;;;;;;;;;;19.30;54.70;;;;;;5053013;28;1359;-67
2021/01/31 08:50:34;;;;;;;;;;;19.30;54.70;;;;;;5053778;28;1345;-66
2021/01/31 08:53:00;;;;;;;;;;;19.30;54.80;;;;;;5052700;28;1278;-66
2021/01/31 08:55:26;;;;;;;;;;;19.30;54.80;;;;;;5053798;28;1959;-66
2021/01/31 08:57:58;;;;;;;;;;;19.30;54.80;;;;;;5052492;28;1451;-67
2021/01/31 09:00:24;;;;;;;;;;;19.30;55.40;;;;;;5052629;28;1189;-66
2021/01/31 09:02:50;;;;;;;;;;;19.30;54.70;;;;;;5052498;28;1407;-66
2021/01/31 09:05:16;;;;;;;;;;;19.30;54.70;;;;;;5053635;28;1388;-67
2021/01/31 09:07:44;;;;;;;;;;;19.30;54.70;;;;;;5052391;28;1392;-67
2021/01/31 09:10:22;;;;;;;;;;;19.30;54.70;;;;;;5052630;28;1401;-66
2021/01/31 09:12:47;;;;;;;;;;;19.30;54.70;;;;;;5053580;28;1379;-67
2021/01/31 09:15:31;;;;;;;;;;;19.30;54.70;;;;;;5052247;28;1432;-66
2021/01/31 09:18:04;;;;;;;;;;;19.30;54.70;;;;;;5053296;28;1455;-66
2021/01/31 09:20:30;;;;;;;;;;;19.30;54.80;;;;;;5035566;28;1609;-66
2021/01/31 09:22:57;;;;;;;;;;;19.30;54.70;;;;;;5053404;28;1266;-66
2021/01/31 09:25:22;;;;;;;;;;;19.30;54.80;;;;;;5053374;28;1653;-67
2021/01/31 09:28:07;;;;;;;;;;;19.30;54.70;;;;;;5053424;28;1387;-68
2021/01/31 09:30:33;;;;;;;;;;;19.30;54.80;;;;;;5053446;28;1694;-69
2021/01/31 09:33:04;;;;;;;;;;;19.30;54.70;;;;;;5052164;28;1675;-68
2021/01/31 09:35:32;;;;;;;;;;;19.30;54.70;;;;;;5052094;28;1960;-68
2021/01/31 09:38:08;;;;;;;;;;;19.30;54.70;;;;;;5051895;28;1639;-68
2021/01/31 09:40:33;;;;;;;;;;;19.30;54.70;;;;;;5053487;28;1656;-67
2021/01/31 09:42:59;;;;;;;;;;;19.30;54.70;;;;;;5067543;22;3951;-68
2021/01/31 09:45:27;;;;;;;;;;;19.30;54.70;;;;;;5044880;28;1887;-68
2021/01/31 09:47:53;;;;;;;;;;;19.30;54.70;;;;;;5045779;28;1537;-68
2021/01/31 09:50:18;;;;;;;;;;;19.30;54.70;;;;;;5031779;28;1330;-68
2021/01/31 09:52:44;;;;;;;;;;;19.40;54.80;;;;;;5036721;28;1252;-68
2021/01/31 09:55:23;;;;;;;;;;;19.30;54.70;;;;;;5052346;28;1281;-68
2021/01/31 09:57:48;;;;;;;;;;;19.30;54.70;;;;;;5037746;28;1230;-69
2021/01/31 10:00:14;;;;;;;;;;;19.40;54.80;;;;;;5014957;28;1345;-68
2021/01/31 10:02:39;;;;;;;;;;;19.40;54.80;;;;;;5032888;28;1079;-68
2021/01/31 10:05:06;;;;;;;;;;;19.40;54.90;;;;;;5032507;28;1254;-68
2021/01/31 10:07:32;;;;;;;;;;;19.40;54.80;;;;;;5031421;28;1277;-68
2021/01/31 10:09:58;;;;;;;;;;;19.40;54.80;;;;;;5031635;28;1342;-68
2021/01/31 10:12:30;;;;;;;;;;;19.50;54.80;;;;;;5031602;28;1372;-68
2021/01/31 10:15:06;;;;;;;;;;;19.60;54.70;;;;;;5031477;28;1436;-68
2021/01/31 10:17:41;;;;;;;;;;;19.70;54.40;;;;;;5029420;28;1894;-68
2021/01/31 10:20:26;;;;;;;;;;;19.80;54.10;;;;;;5051196;28;1321;-69
2021/01/31 10:22:55;;;;;;;;;;;20.00;53.90;;;;;;5052809;28;1321;-68
2021/01/31 10:25:21;;;;;;;;;;;20.20;53.60;;;;;;5051260;28;1361;-68
2021/01/31 10:27:47;;;;;;;;;;;20.30;53.30;;;;;;5051313;28;1031;-68
2021/01/31 10:30:17;;;;;;;;;;;20.40;53.00;;;;;;5052593;28;1347;-69
2021/01/31 10:32:42;;;;;;;;;;;20.50;52.80;;;;;;5055387;28;1338;-69
2021/01/31 10:35:28;;;;;;;;;;;20.50;52.60;;;;;;5055010;28;1410;-68
2021/01/31 10:37:54;;;;;;;;;;;20.60;52.50;;;;;;5056175;28;1336;-69
2021/01/31 10:40:19;;;;;;;;;;;20.70;52.40;;;;;;5046436;28;1308;-69
2021/01/31 10:42:45;;;;;;;;;;;20.70;52.30;;;;;;5035028;28;1364;-68
2021/01/31 10:45:18;;;;;;;;;;;20.70;52.20;;;;;;5035991;28;1281;-68
2021/01/31 10:47:45;;;;;;;;;;;20.80;52.20;;;;;;5034969;28;1329;-69
2021/01/31 10:50:11;;;;;;;;;;;20.80;52.10;;;;;;5035195;28;1442;-68
2021/01/31 10:52:36;;;;;;;;;;;20.80;52.00;;;;;;5036150;28;1229;-69
2021/01/31 10:55:02;;;;;;;;;;;20.90;51.90;;;;;;5036066;28;1310;-68
2021/01/31 10:57:28;;;;;;;;;;;21.00;51.90;;;;;;5038486;28;1963;-68
2021/01/31 10:59:54;;;;;;;;;;;21.00;51.80;;;;;;5055940;28;1310;-69
2021/01/31 11:02:20;;;;;;;;;;;21.10;51.70;;;;;;5055905;28;1371;-69
2021/01/31 11:04:45;;;;;;;;;;;21.10;51.60;;;;;;5055682;28;1324;-68
2021/01/31 11:07:10;;;;;;;;;;;21.20;51.50;;;;;;5055818;28;1398;-69
2021/01/31 11:09:36;;;;;;;;;;;21.20;51.40;;;;;;5055745;28;1228;-68
2021/01/31 11:12:02;;;;;;;;;;;21.30;51.30;;;;;;5055684;28;1342;-69
2021/01/31 11:14:27;;;;;;;;;;;21.30;51.20;;;;;;5037436;28;1327;-69
2021/01/31 11:16:54;;;;;;;;;;;21.40;51.20;;;;;;5041124;28;1948;-69
2021/01/31 11:19:19;;;;;;;;;;;21.40;51.10;;;;;;5035939;28;1413;-69
2021/01/31 11:21:44;;;;;;;;;;;21.50;51.00;;;;;;5035735;28;1080;-69
2021/01/31 11:24:10;;;;;;;;;;;21.50;50.90;;;;;;5026749;28;1333;-68
2021/01/31 11:26:35;;;;;;;;;;;21.50;50.90;;;;;;5031757;28;1444;-69
2021/01/31 11:29:01;;;;;;;;;;;21.50;50.80;;;;;;5034222;28;1332;-69
2021/01/31 11:31:26;;;;;;;;;;;21.60;50.80;;;;;;5032823;28;2131;-69
2021/01/31 11:33:54;;;;;;;;;;;21.60;50.70;;;;;;5035343;28;1377;-70
2021/01/31 11:36:20;;;;;;;;;;;21.60;50.70;;;;;;5033910;28;1910;-69
2021/01/31 11:38:45;;;;;;;;;;;21.60;50.70;;;;;;5035427;28;1339;-69
2021/01/31 11:41:11;;;;;;;;;;;21.60;50.60;;;;;;5034515;28;1245;-69
2021/01/31 11:43:36;;;;;;;;;;;21.70;50.60;;;;;;5034484;28;1375;-68
2021/01/31 11:46:01;;;;;;;;;;;21.70;50.60;;;;;;5034987;28;1373;-69
2021/01/31 11:48:27;;;;;;;;;;;21.70;50.60;;;;;;5035274;28;1261;-69
2021/01/31 11:50:52;;;;;;;;;;;21.70;50.60;;;;;;5035625;28;1338;-68
2021/01/31 11:53:18;;;;;;;;;;;21.70;50.50;;;;;;5035109;28;1365;-71
2021/01/31 11:55:43;;;;;;;;;;;21.70;50.50;;;;;;5034750;28;1973;-70
2021/01/31 11:58:10;;;;;;;;;;;21.70;50.50;;;;;;5025195;28;1283;-68
2021/01/31 12:00:35;;;;;;;;;;;21.80;50.50;;;;;;5028968;28;1330;-69
2021/01/31 12:03:01;;;;;;;;;;;21.80;50.50;;;;;;5034893;28;1377;-69
2021/01/31 12:05:26;;;;;;;;;;;21.80;50.50;;;;;;5034922;28;1326;-68
2021/01/31 12:07:52;;;;;;;;;;;21.80;50.50;;;;;;5034859;28;1339;-69
2021/01/31 12:10:17;;;;;;;;;;;21.80;50.50;;;;;;5034692;28;1278;-68
2021/01/31 12:12:43;;;;;;;;;;;21.80;50.50;;;;;;5034580;28;1130;-68
2021/01/31 12:15:09;;;;;;;;;;;21.80;50.50;;;;;;5034468;28;1731;-68
2021/01/31 12:17:34;;;;;;;;;;;21.80;50.60;;;;;;5024660;28;1898;-69
2021/01/31 12:19:59;;;;;;;;;;;21.70;51.20;;;;;;5034556;28;1312;-68
2021/01/31 12:22:25;;;;;;;;;;;21.80;50.70;;;;;;5034598;28;1401;-68
2021/01/31 12:24:50;;;;;;;;;;;21.70;50.70;;;;;;5034626;28;1346;-68
2021/01/31 12:27:25;;;;;;;;;;;21.70;50.70;;;;;;5029561;28;1604;-69
2021/01/31 12:29:51;;;;;;;;;;;21.70;50.70;;;;;;5031870;28;1382;-68
2021/01/31 12:32:16;;;;;;;;;;;21.70;50.80;;;;;;5034240;28;1119;-68
2021/01/31 12:34:42;;;;;;;;;;;21.60;50.80;;;;;;5034085;28;1332;-69
2021/01/31 12:37:08;;;;;;;;;;;21.60;50.90;;;;;;5033281;28;1894;-68
2021/01/31 12:39:36;;;;;;;;;;;21.60;51.00;;;;;;5032967;28;1293;-68
2021/01/31 12:42:02;;;;;;;;;;;21.50;51.00;;;;;;5032937;28;1317;-68
2021/01/31 12:44:27;;;;;;;;;;;21.50;51.10;;;;;;5033896;28;1351;-69
2021/01/31 12:46:53;;;;;;;;;;;21.50;51.10;;;;;;5034126;28;1326;-68
2021/01/31 12:49:18;;;;;;;;;;;21.50;51.20;;;;;;5034169;28;1375;-68
2021/01/31 12:51:43;;;;;;;;;;;21.50;51.20;;;;;;5032792;28;1306;-68
2021/01/31 12:54:09;;;;;;;;;;;21.50;51.30;;;;;;5033593;28;1349;-69
2021/01/31 12:56:34;;;;;;;;;;;21.40;51.40;;;;;;5033690;28;1906;-69
2021/01/31 12:59:00;;;;;;;;;;;21.40;51.40;;;;;;5050329;28;1220;-68
2021/01/31 13:01:25;;;;;;;;;;;21.40;51.50;;;;;;5053776;28;1284;-68
2021/01/31 13:03:51;;;;;;;;;;;21.40;51.50;;;;;;5053403;28;1383;-69
2021/01/31 13:06:16;;;;;;;;;;;21.30;51.60;;;;;;5053556;28;1262;-69
2021/01/31 13:08:42;;;;;;;;;;;21.30;51.60;;;;;;5053313;28;1344;-68
2021/01/31 13:11:07;;;;;;;;;;;21.30;51.60;;;;;;5053543;28;1295;-68
2021/01/31 13:13:32;;;;;;;;;;;21.30;51.70;;;;;;5053215;28;1395;-68
2021/01/31 13:15:58;;;;;;;;;;;21.20;51.70;;;;;;5045236;28;1910;-68
2021/01/31 13:18:23;;;;;;;;;;;21.20;51.80;;;;;;5033565;28;1298;-68
2021/01/31 13:20:49;;;;;;;;;;;21.20;51.90;;;;;;5033511;28;1576;-69
2021/01/31 13:23:14;;;;;;;;;;;21.20;51.90;;;;;;5033649;28;1280;-68
2021/01/31 13:25:40;;;;;;;;;;;21.10;51.90;;;;;;5031937;28;1368;-68
2021/01/31 13:28:05;;;;;;;;;;;21.10;52.00;;;;;;5033134;28;1323;-68
2021/01/31 13:30:31;;;;;;;;;;;21.10;52.00;;;;;;5033393;28;1306;-68
2021/01/31 13:32:57;;;;;;;;;;;21.00;52.00;;;;;;5033544;28;1334;-68
2021/01/31 13:35:23;;;;;;;;;;;21.00;52.10;;;;;;5033011;28;1361;-68
2021/01/31 13:37:48;;;;;;;;;;;21.00;52.20;;;;;;5033114;28;1902;-68
2021/01/31 13:40:14;;;;;;;;;;;21.00;52.20;;;;;;5033044;28;1272;-68
2021/01/31 13:42:39;;;;;;;;;;;21.00;52.30;;;;;;5033131;28;1306;-70
2021/01/31 13:45:05;;;;;;;;;;;20.90;52.30;;;;;;5032895;28;1371;-68
2021/01/31 13:47:30;;;;;;;;;;;20.90;52.30;;;;;;5033150;28;1347;-68
2021/01/31 13:49:57;;;;;;;;;;;20.90;52.30;;;;;;5033059;28;1381;-69
2021/01/31 13:52:23;;;;;;;;;;;20.90;52.40;;;;;;5032992;28;1157;-68
2021/01/31 13:54:49;;;;;;;;;;;20.90;52.40;;;;;;5032912;28;1338;-68
2021/01/31 13:57:18;;;;;;;;;;;20.90;52.50;;;;;;5035059;28;1976;-68
2021/01/31 13:59:43;;;;;;;;;;;20.90;52.50;;;;;;5051691;28;1354;-68
2021/01/31 14:02:09;;;;;;;;;;;20.80;52.60;;;;;;5052916;28;1450;-68
2021/01/31 14:04:34;;;;;;;;;;;20.80;52.60;;;;;;5052725;28;1307;-68
2021/01/31 14:07:00;;;;;;;;;;;20.80;52.70;;;;;;5059219;28;1368;-70
2021/01/31 14:09:25;;;;;;;;;;;20.80;52.70;;;;;;5058249;28;1369;-69
2021/01/31 14:11:51;;;;;;;;;;;20.80;52.80;;;;;;5059260;28;1324;-68
2021/01/31 14:14:16;;;;;;;;;;;20.70;52.80;;;;;;5039345;28;1213;-68
2021/01/31 14:16:42;;;;;;;;;;;20.70;52.90;;;;;;5030191;28;1953;-69
2021/01/31 14:19:07;;;;;;;;;;;20.70;52.90;;;;;;5059479;28;1305;-69
2021/01/31 14:21:33;;;;;;;;;;;20.70;52.90;;;;;;5057916;28;1300;-68
2021/01/31 14:23:59;;;;;;;;;;;20.70;53.00;;;;;;5057844;28;1412;-69
2021/01/31 14:26:24;;;;;;;;;;;20.60;52.90;;;;;;5059230;28;1387;-68
2021/01/31 14:28:50;;;;;;;;;;;20.60;53.00;;;;;;5059332;28;1281;-68
2021/01/31 14:31:15;;;;;;;;;;;20.60;53.10;;;;;;5059166;28;1353;-68
2021/01/31 14:33:41;;;;;;;;;;;20.60;53.10;;;;;;5058951;28;1300;-68
2021/01/31 14:36:06;;;;;;;;;;;20.60;53.10;;;;;;5058924;28;1961;-69
2021/01/31 14:38:32;;;;;;;;;;;20.60;53.10;;;;;;5058971;28;1348;-68